sensor_id;sensor_type;location;lat;lon;timestamp;temperature;humidity
38514;DHT22;24282;48.400;10.808;2023-02-24T00:00:11;7.20;87.60
38514;DHT22;24282;48.400;10.808;2023-02-24T00:02:58;7.20;87.60
38514;DHT22;24282;48.400;10.808;2023-02-24T00:05:24;7.20;87.60
38514;DHT22;24282;48.400;10.808;2023-02-24T00:07:50;7.10;87.50
38514;DHT22;24282;48.400;10.808;2023-02-24T00:10:16;7.20;87.40
38514;DHT22;24282;48.400;10.808;2023-02-24T00:12:44;7.10;87.40
38514;DHT22;24282;48.400;10.808;2023-02-24T00:15:14;7.10;87.40
38514;DHT22;24282;48.400;10.808;2023-02-24T00:17:41;7.10;87.50
38514;DHT22;24282;48.400;10.808;2023-02-24T00:20:10;7.10;87.50
38514;DHT22;24282;48.400;10.808;2023-02-24T00:22:38;7.00;87.60
38514;DHT22;24282;48.400;10.808;2023-02-24T00:25:04;7.00;87.60
38514;DHT22;24282;48.400;10.808;2023-02-24T00:27:30;7.00;87.60
38514;DHT22;24282;48.400;10.808;2023-02-24T00:29:57;7.00;87.60
38514;DHT22;24282;48.400;10.808;2023-02-24T00:32:23;7.00;87.60
38514;DHT22;24282;48.400;10.808;2023-02-24T00:34:49;7.00;87.60
38514;DHT22;24282;48.400;10.808;2023-02-24T00:37:14;7.00;87.50
38514;DHT22;24282;48.400;10.808;2023-02-24T00:39:43;6.90;87.60
38514;DHT22;24282;48.400;10.808;2023-02-24T00:42:09;6.90;87.50
38514;DHT22;24282;48.400;10.808;2023-02-24T00:44:43;6.90;87.50
38514;DHT22;24282;48.400;10.808;2023-02-24T00:47:10;6.90;87.50
38514;DHT22;24282;48.400;10.808;2023-02-24T00:49:38;6.90;87.40
38514;DHT22;24282;48.400;10.808;2023-02-24T00:52:15;6.90;87.40
38514;DHT22;24282;48.400;10.808;2023-02-24T00:54:43;6.80;87.30
38514;DHT22;24282;48.400;10.808;2023-02-24T00:57:10;6.80;87.30
38514;DHT22;24282;48.400;10.808;2023-02-24T00:59:37;6.80;87.20
38514;DHT22;24282;48.400;10.808;2023-02-24T01:02:04;6.80;87.20
38514;DHT22;24282;48.400;10.808;2023-02-24T01:04:32;6.70;87.30
38514;DHT22;24282;48.400;10.808;2023-02-24T01:06:58;6.70;87.30
38514;DHT22;24282;48.400;10.808;2023-02-24T01:09:29;6.70;87.40
38514;DHT22;24282;48.400;10.808;2023-02-24T01:11:56;6.80;87.40
38514;DHT22;24282;48.400;10.808;2023-02-24T01:14:43;6.70;87.30
38514;DHT22;24282;48.400;10.808;2023-02-24T01:17:11;6.70;87.30
38514;DHT22;24282;48.400;10.808;2023-02-24T01:19:37;6.70;87.20
38514;DHT22;24282;48.400;10.808;2023-02-24T01:22:05;6.70;87.20
38514;DHT22;24282;48.400;10.808;2023-02-24T01:24:35;6.70;87.10
38514;DHT22;24282;48.400;10.808;2023-02-24T01:27:02;6.70;87.00
38514;DHT22;24282;48.400;10.808;2023-02-24T01:29:28;6.70;87.00
38514;DHT22;24282;48.400;10.808;2023-02-24T01:31:53;6.70;87.00
38514;DHT22;24282;48.400;10.808;2023-02-24T01:34:26;6.70;86.90
38514;DHT22;24282;48.400;10.808;2023-02-24T01:36:56;6.60;87.00
38514;DHT22;24282;48.400;10.808;2023-02-24T01:39:22;6.60;87.10
38514;DHT22;24282;48.400;10.808;2023-02-24T01:41:49;6.70;87.00
38514;DHT22;24282;48.400;10.808;2023-02-24T01:46:51;6.60;87.10
38514;DHT22;24282;48.400;10.808;2023-02-24T01:49:28;6.60;87.30
38514;DHT22;24282;48.400;10.808;2023-02-24T01:52:32;6.60;87.40
38514;DHT22;24282;48.400;10.808;2023-02-24T01:55:06;6.60;87.50
38514;DHT22;24282;48.400;10.808;2023-02-24T01:57:36;6.60;87.60
38514;DHT22;24282;48.400;10.808;2023-02-24T02:00:08;6.60;87.50
38514;DHT22;24282;48.400;10.808;2023-02-24T02:02:56;6.60;87.40
38514;DHT22;24282;48.400;10.808;2023-02-24T02:05:25;6.60;87.20
38514;DHT22;24282;48.400;10.808;2023-02-24T02:07:52;6.60;87.30
38514;DHT22;24282;48.400;10.808;2023-02-24T02:10:18;6.60;87.40
38514;DHT22;24282;48.400;10.808;2023-02-24T02:12:44;6.60;87.50
38514;DHT22;24282;48.400;10.808;2023-02-24T02:15:12;6.60;87.40
38514;DHT22;24282;48.400;10.808;2023-02-24T02:18:02;6.50;87.50
38514;DHT22;24282;48.400;10.808;2023-02-24T02:42:04;6.50;87.60
38514;DHT22;24282;48.400;10.808;2023-02-24T02:44:37;6.50;87.60
38514;DHT22;24282;48.400;10.808;2023-02-24T02:47:17;6.50;87.60
38514;DHT22;24282;48.400;10.808;2023-02-24T02:49:48;6.50;87.50
38514;DHT22;24282;48.400;10.808;2023-02-24T02:52:46;6.50;87.50
38514;DHT22;24282;48.400;10.808;2023-02-24T02:55:18;6.50;87.60
38514;DHT22;24282;48.400;10.808;2023-02-24T02:57:48;6.50;87.60
38514;DHT22;24282;48.400;10.808;2023-02-24T03:00:27;6.50;87.60
38514;DHT22;24282;48.400;10.808;2023-02-24T03:03:05;6.50;87.60
38514;DHT22;24282;48.400;10.808;2023-02-24T03:05:38;6.50;87.60
38514;DHT22;24282;48.400;10.808;2023-02-24T03:08:13;6.40;87.50
38514;DHT22;24282;48.400;10.808;2023-02-24T03:10:41;6.40;87.50
38514;DHT22;24282;48.400;10.808;2023-02-24T03:13:11;6.40;87.60
38514;DHT22;24282;48.400;10.808;2023-02-24T03:15:39;6.40;87.70
38514;DHT22;24282;48.400;10.808;2023-02-24T03:18:11;6.40;87.70
38514;DHT22;24282;48.400;10.808;2023-02-24T03:20:43;6.40;87.70
38514;DHT22;24282;48.400;10.808;2023-02-24T03:23:20;6.40;87.60
38514;DHT22;24282;48.400;10.808;2023-02-24T03:25:57;6.40;87.60
38514;DHT22;24282;48.400;10.808;2023-02-24T03:28:36;6.40;87.70
38514;DHT22;24282;48.400;10.808;2023-02-24T03:31:06;6.30;87.70
38514;DHT22;24282;48.400;10.808;2023-02-24T03:33:38;6.30;87.70
38514;DHT22;24282;48.400;10.808;2023-02-24T03:36:06;6.30;87.60
38514;DHT22;24282;48.400;10.808;2023-02-24T03:38:33;6.20;87.70
38514;DHT22;24282;48.400;10.808;2023-02-24T03:41:03;6.20;87.80
38514;DHT22;24282;48.400;10.808;2023-02-24T03:43:43;6.30;87.80
38514;DHT22;24282;48.400;10.808;2023-02-24T03:46:15;6.20;87.80
38514;DHT22;24282;48.400;10.808;2023-02-24T03:48:49;6.20;87.90
38514;DHT22;24282;48.400;10.808;2023-02-24T03:51:19;6.20;87.70
38514;DHT22;24282;48.400;10.808;2023-02-24T03:56:37;6.10;87.60
38514;DHT22;24282;48.400;10.808;2023-02-24T04:02:25;6.10;87.50
38514;DHT22;24282;48.400;10.808;2023-02-24T04:05:02;6.10;87.50
38514;DHT22;24282;48.400;10.808;2023-02-24T04:07:52;6.00;87.40
38514;DHT22;24282;48.400;10.808;2023-02-24T04:10:44;6.00;87.30
38514;DHT22;24282;48.400;10.808;2023-02-24T04:16:30;6.00;87.40
38514;DHT22;24282;48.400;10.808;2023-02-24T04:19:07;5.90;87.50
38514;DHT22;24282;48.400;10.808;2023-02-24T04:21:36;5.90;87.30
38514;DHT22;24282;48.400;10.808;2023-02-24T04:24:05;5.90;87.40
38514;DHT22;24282;48.400;10.808;2023-02-24T04:26:38;5.80;87.50
38514;DHT22;24282;48.400;10.808;2023-02-24T04:29:09;5.80;87.60
38514;DHT22;24282;48.400;10.808;2023-02-24T04:31:47;5.80;87.50
38514;DHT22;24282;48.400;10.808;2023-02-24T04:34:16;5.80;87.40
38514;DHT22;24282;48.400;10.808;2023-02-24T04:36:46;5.70;87.30
38514;DHT22;24282;48.400;10.808;2023-02-24T04:39:17;5.70;87.40
38514;DHT22;24282;48.400;10.808;2023-02-24T04:41:48;5.60;87.50
38514;DHT22;24282;48.400;10.808;2023-02-24T04:44:19;5.70;87.50
38514;DHT22;24282;48.400;10.808;2023-02-24T04:46:49;5.60;87.30
38514;DHT22;24282;48.400;10.808;2023-02-24T04:49:16;5.50;87.20
38514;DHT22;24282;48.400;10.808;2023-02-24T04:51:43;5.60;87.20
38514;DHT22;24282;48.400;10.808;2023-02-24T04:54:11;5.50;87.10
38514;DHT22;24282;48.400;10.808;2023-02-24T04:56:40;5.50;87.00
38514;DHT22;24282;48.400;10.808;2023-02-24T04:59:06;5.50;86.80
38514;DHT22;24282;48.400;10.808;2023-02-24T05:01:35;5.50;86.70
38514;DHT22;24282;48.400;10.808;2023-02-24T05:04:05;5.40;86.60
38514;DHT22;24282;48.400;10.808;2023-02-24T05:06:31;5.30;86.70
38514;DHT22;24282;48.400;10.808;2023-02-24T05:08:57;5.30;86.80
38514;DHT22;24282;48.400;10.808;2023-02-24T05:11:26;5.30;86.60
38514;DHT22;24282;48.400;10.808;2023-02-24T05:13:59;5.30;86.50
38514;DHT22;24282;48.400;10.808;2023-02-24T05:16:25;5.20;86.60
38514;DHT22;24282;48.400;10.808;2023-02-24T05:18:53;5.20;86.60
38514;DHT22;24282;48.400;10.808;2023-02-24T05:21:39;5.20;86.60
38514;DHT22;24282;48.400;10.808;2023-02-24T05:24:07;5.20;86.50
38514;DHT22;24282;48.400;10.808;2023-02-24T05:26:37;5.10;86.30
38514;DHT22;24282;48.400;10.808;2023-02-24T05:29:07;5.10;86.30
38514;DHT22;24282;48.400;10.808;2023-02-24T05:31:33;5.00;86.30
38514;DHT22;24282;48.400;10.808;2023-02-24T05:34:06;5.00;86.20
38514;DHT22;24282;48.400;10.808;2023-02-24T05:36:38;5.00;86.10
38514;DHT22;24282;48.400;10.808;2023-02-24T05:39:06;5.00;86.10
38514;DHT22;24282;48.400;10.808;2023-02-24T05:41:38;5.00;86.20
38514;DHT22;24282;48.400;10.808;2023-02-24T05:44:09;5.00;86.30
38514;DHT22;24282;48.400;10.808;2023-02-24T05:46:38;5.00;86.40
38514;DHT22;24282;48.400;10.808;2023-02-24T05:49:16;5.00;86.50
38514;DHT22;24282;48.400;10.808;2023-02-24T05:51:49;5.00;86.50
38514;DHT22;24282;48.400;10.808;2023-02-24T05:54:33;5.00;86.60
38514;DHT22;24282;48.400;10.808;2023-02-24T05:57:02;5.10;86.70
38514;DHT22;24282;48.400;10.808;2023-02-24T05:59:30;5.10;86.60
38514;DHT22;24282;48.400;10.808;2023-02-24T06:02:00;5.10;86.60
38514;DHT22;24282;48.400;10.808;2023-02-24T06:04:32;5.10;86.60
38514;DHT22;24282;48.400;10.808;2023-02-24T06:07:25;5.10;86.60
38514;DHT22;24282;48.400;10.808;2023-02-24T06:09:56;5.10;86.50
38514;DHT22;24282;48.400;10.808;2023-02-24T06:12:31;5.10;86.60
38514;DHT22;24282;48.400;10.808;2023-02-24T06:14:58;5.10;86.70
38514;DHT22;24282;48.400;10.808;2023-02-24T06:17:25;5.10;86.70
38514;DHT22;24282;48.400;10.808;2023-02-24T06:19:52;5.10;86.80
38514;DHT22;24282;48.400;10.808;2023-02-24T06:22:20;5.10;86.90
38514;DHT22;24282;48.400;10.808;2023-02-24T06:24:47;5.10;86.90
38514;DHT22;24282;48.400;10.808;2023-02-24T06:27:16;5.10;87.00
38514;DHT22;24282;48.400;10.808;2023-02-24T06:29:44;5.20;87.20
38514;DHT22;24282;48.400;10.808;2023-02-24T06:32:10;5.10;87.30
38514;DHT22;24282;48.400;10.808;2023-02-24T06:34:38;5.20;87.40
38514;DHT22;24282;48.400;10.808;2023-02-24T06:37:06;5.20;87.50
38514;DHT22;24282;48.400;10.808;2023-02-24T06:39:32;5.20;87.40
38514;DHT22;24282;48.400;10.808;2023-02-24T06:42:02;5.20;87.30
38514;DHT22;24282;48.400;10.808;2023-02-24T06:44:30;5.30;87.30
38514;DHT22;24282;48.400;10.808;2023-02-24T06:46:57;5.20;87.20
38514;DHT22;24282;48.400;10.808;2023-02-24T06:49:23;5.20;87.30
38514;DHT22;24282;48.400;10.808;2023-02-24T06:51:50;5.30;87.30
38514;DHT22;24282;48.400;10.808;2023-02-24T06:54:16;5.30;87.30
38514;DHT22;24282;48.400;10.808;2023-02-24T06:56:43;5.30;87.40
38514;DHT22;24282;48.400;10.808;2023-02-24T06:59:09;5.30;87.40
38514;DHT22;24282;48.400;10.808;2023-02-24T07:01:37;5.40;87.40
38514;DHT22;24282;48.400;10.808;2023-02-24T07:04:12;5.40;87.50
38514;DHT22;24282;48.400;10.808;2023-02-24T07:06:41;5.40;87.60
38514;DHT22;24282;48.400;10.808;2023-02-24T07:09:09;5.40;87.60
38514;DHT22;24282;48.400;10.808;2023-02-24T07:11:37;5.50;87.70
38514;DHT22;24282;48.400;10.808;2023-02-24T07:14:06;5.50;87.70
38514;DHT22;24282;48.400;10.808;2023-02-24T07:16:33;5.50;87.80
38514;DHT22;24282;48.400;10.808;2023-02-24T07:19:02;5.50;87.70
38514;DHT22;24282;48.400;10.808;2023-02-24T07:21:29;5.50;87.70
38514;DHT22;24282;48.400;10.808;2023-02-24T07:24:05;5.50;88.00
38514;DHT22;24282;48.400;10.808;2023-02-24T07:26:31;5.50;88.20
38514;DHT22;24282;48.400;10.808;2023-02-24T07:28:58;5.60;88.30
38514;DHT22;24282;48.400;10.808;2023-02-24T07:31:29;5.60;88.40
38514;DHT22;24282;48.400;10.808;2023-02-24T07:33:57;5.60;88.40
38514;DHT22;24282;48.400;10.808;2023-02-24T07:36:27;5.70;88.50
38514;DHT22;24282;48.400;10.808;2023-02-24T07:38:56;5.70;88.40
38514;DHT22;24282;48.400;10.808;2023-02-24T07:41:27;5.70;88.40
38514;DHT22;24282;48.400;10.808;2023-02-24T07:43:54;5.70;88.50
38514;DHT22;24282;48.400;10.808;2023-02-24T07:46:23;5.80;88.50
38514;DHT22;24282;48.400;10.808;2023-02-24T07:48:52;5.80;88.60
38514;DHT22;24282;48.400;10.808;2023-02-24T07:51:21;5.80;88.60
38514;DHT22;24282;48.400;10.808;2023-02-24T07:53:53;5.90;88.70
38514;DHT22;24282;48.400;10.808;2023-02-24T07:56:21;5.90;88.70
38514;DHT22;24282;48.400;10.808;2023-02-24T07:58:53;5.90;88.70
38514;DHT22;24282;48.400;10.808;2023-02-24T08:01:33;5.90;88.70
38514;DHT22;24282;48.400;10.808;2023-02-24T08:04:19;6.00;88.90
38514;DHT22;24282;48.400;10.808;2023-02-24T08:06:48;6.00;89.00
38514;DHT22;24282;48.400;10.808;2023-02-24T08:09:22;6.10;89.10
38514;DHT22;24282;48.400;10.808;2023-02-24T08:12:13;6.00;89.20
38514;DHT22;24282;48.400;10.808;2023-02-24T08:14:43;6.10;89.30
38514;DHT22;24282;48.400;10.808;2023-02-24T08:17:19;6.10;89.30
38514;DHT22;24282;48.400;10.808;2023-02-24T08:19:46;6.10;89.40
38514;DHT22;24282;48.400;10.808;2023-02-24T08:22:13;6.20;89.40
38514;DHT22;24282;48.400;10.808;2023-02-24T08:24:46;6.20;89.50
38514;DHT22;24282;48.400;10.808;2023-02-24T08:27:16;6.20;89.40
38514;DHT22;24282;48.400;10.808;2023-02-24T08:29:48;6.20;89.40
38514;DHT22;24282;48.400;10.808;2023-02-24T08:32:37;6.30;89.40
38514;DHT22;24282;48.400;10.808;2023-02-24T08:35:07;6.40;89.50
38514;DHT22;24282;48.400;10.808;2023-02-24T08:37:41;6.40;89.50
38514;DHT22;24282;48.400;10.808;2023-02-24T08:40:14;6.40;89.60
38514;DHT22;24282;48.400;10.808;2023-02-24T08:43:11;6.50;89.70
38514;DHT22;24282;48.400;10.808;2023-02-24T08:45:53;6.50;89.70
38514;DHT22;24282;48.400;10.808;2023-02-24T08:48:35;6.60;89.80
38514;DHT22;24282;48.400;10.808;2023-02-24T08:53:50;6.70;90.00
38514;DHT22;24282;48.400;10.808;2023-02-24T08:56:20;6.70;90.10
38514;DHT22;24282;48.400;10.808;2023-02-24T08:58:52;6.70;90.20
38514;DHT22;24282;48.400;10.808;2023-02-24T09:01:33;6.80;90.30
38514;DHT22;24282;48.400;10.808;2023-02-24T09:04:03;6.90;90.40
38514;DHT22;24282;48.400;10.808;2023-02-24T09:09:04;7.00;90.40
38514;DHT22;24282;48.400;10.808;2023-02-24T09:11:48;7.10;90.40
38514;DHT22;24282;48.400;10.808;2023-02-24T09:14:17;7.20;90.40
38514;DHT22;24282;48.400;10.808;2023-02-24T09:16:44;7.20;90.30
38514;DHT22;24282;48.400;10.808;2023-02-24T09:19:35;7.20;90.30
38514;DHT22;24282;48.400;10.808;2023-02-24T09:22:11;7.20;90.30
38514;DHT22;24282;48.400;10.808;2023-02-24T09:24:54;7.20;90.30
38514;DHT22;24282;48.400;10.808;2023-02-24T09:27:41;7.30;90.30
38514;DHT22;24282;48.400;10.808;2023-02-24T09:30:11;7.30;90.30
38514;DHT22;24282;48.400;10.808;2023-02-24T09:32:57;7.40;90.30
38514;DHT22;24282;48.400;10.808;2023-02-24T09:35:28;7.40;90.30
38514;DHT22;24282;48.400;10.808;2023-02-24T09:37:58;7.50;90.20
38514;DHT22;24282;48.400;10.808;2023-02-24T09:40:26;7.50;90.20
38514;DHT22;24282;48.400;10.808;2023-02-24T09:43:10;7.60;90.10
38514;DHT22;24282;48.400;10.808;2023-02-24T09:46:09;7.60;90.10
38514;DHT22;24282;48.400;10.808;2023-02-24T09:48:55;7.70;89.90
38514;DHT22;24282;48.400;10.808;2023-02-24T09:51:31;7.70;89.90
38514;DHT22;24282;48.400;10.808;2023-02-24T09:54:19;7.70;89.90
38514;DHT22;24282;48.400;10.808;2023-02-24T09:56:53;7.80;90.00
38514;DHT22;24282;48.400;10.808;2023-02-24T09:59:56;7.90;90.20
38514;DHT22;24282;48.400;10.808;2023-02-24T10:03:07;8.00;90.40
38514;DHT22;24282;48.400;10.808;2023-02-24T10:06:00;8.10;90.30
38514;DHT22;24282;48.400;10.808;2023-02-24T10:08:41;8.20;90.20
38514;DHT22;24282;48.400;10.808;2023-02-24T10:11:10;8.20;90.00
38514;DHT22;24282;48.400;10.808;2023-02-24T10:13:54;8.30;89.70
38514;DHT22;24282;48.400;10.808;2023-02-24T10:16:23;8.50;88.50
38514;DHT22;24282;48.400;10.808;2023-02-24T10:19:20;8.60;88.50
38514;DHT22;24282;48.400;10.808;2023-02-24T10:27:45;8.70;88.10
38514;DHT22;24282;48.400;10.808;2023-02-24T10:30:27;8.70;88.10
38514;DHT22;24282;48.400;10.808;2023-02-24T10:35:41;8.70;88.10
38514;DHT22;24282;48.400;10.808;2023-02-24T10:38:08;8.70;87.90
38514;DHT22;24282;48.400;10.808;2023-02-24T10:40:47;8.70;87.90
38514;DHT22;24282;48.400;10.808;2023-02-24T10:43:23;8.70;87.80
38514;DHT22;24282;48.400;10.808;2023-02-24T10:46:00;8.80;87.70
38514;DHT22;24282;48.400;10.808;2023-02-24T10:48:53;8.90;86.90
38514;DHT22;24282;48.400;10.808;2023-02-24T10:51:28;8.90;86.10
38514;DHT22;24282;48.400;10.808;2023-02-24T10:54:19;9.00;85.60
38514;DHT22;24282;48.400;10.808;2023-02-24T10:56:50;9.00;85.40
38514;DHT22;24282;48.400;10.808;2023-02-24T10:59:48;9.10;85.30
38514;DHT22;24282;48.400;10.808;2023-02-24T11:02:51;9.20;84.40
38514;DHT22;24282;48.400;10.808;2023-02-24T11:05:39;9.30;84.30
38514;DHT22;24282;48.400;10.808;2023-02-24T11:08:21;9.40;84.20
38514;DHT22;24282;48.400;10.808;2023-02-24T11:11:24;9.40;84.20
38514;DHT22;24282;48.400;10.808;2023-02-24T11:13:59;9.50;84.60
38514;DHT22;24282;48.400;10.808;2023-02-24T11:16:52;9.60;83.60
38514;DHT22;24282;48.400;10.808;2023-02-24T11:22:16;9.60;83.20
38514;DHT22;24282;48.400;10.808;2023-02-24T11:24:45;9.70;83.10
38514;DHT22;24282;48.400;10.808;2023-02-24T11:27:12;9.70;82.90
38514;DHT22;24282;48.400;10.808;2023-02-24T11:35:08;9.80;81.90
38514;DHT22;24282;48.400;10.808;2023-02-24T11:37:47;9.80;81.80
38514;DHT22;24282;48.400;10.808;2023-02-24T11:40:19;9.80;81.90
38514;DHT22;24282;48.400;10.808;2023-02-24T11:42:58;9.90;81.80
38514;DHT22;24282;48.400;10.808;2023-02-24T11:45:46;9.90;81.60
38514;DHT22;24282;48.400;10.808;2023-02-24T11:53:52;10.10;80.60
38514;DHT22;24282;48.400;10.808;2023-02-24T11:59:13;10.20;80.10
38514;DHT22;24282;48.400;10.808;2023-02-24T12:04:32;10.20;79.80
38514;DHT22;24282;48.400;10.808;2023-02-24T12:09:33;10.20;79.00
38514;DHT22;24282;48.400;10.808;2023-02-24T12:12:10;10.20;79.00
38514;DHT22;24282;48.400;10.808;2023-02-24T12:20:43;10.20;78.80
38514;DHT22;24282;48.400;10.808;2023-02-24T12:23:19;10.20;79.20
38514;DHT22;24282;48.400;10.808;2023-02-24T12:25:55;10.20;78.90
38514;DHT22;24282;48.400;10.808;2023-02-24T12:39:28;10.20;78.70
38514;DHT22;24282;48.400;10.808;2023-02-24T12:42:05;10.30;77.40
38514;DHT22;24282;48.400;10.808;2023-02-24T12:44:48;10.40;77.40
38514;DHT22;24282;48.400;10.808;2023-02-24T12:47:26;10.50;77.20
38514;DHT22;24282;48.400;10.808;2023-02-24T12:52:52;10.50;76.40
38514;DHT22;24282;48.400;10.808;2023-02-24T12:55:22;10.50;76.70
38514;DHT22;24282;48.400;10.808;2023-02-24T13:00:39;10.80;77.30
38514;DHT22;24282;48.400;10.808;2023-02-24T13:03:24;11.00;76.10
38514;DHT22;24282;48.400;10.808;2023-02-24T13:05:58;11.10;75.40
38514;DHT22;24282;48.400;10.808;2023-02-24T13:11:37;11.30;74.70
38514;DHT22;24282;48.400;10.808;2023-02-24T13:16:45;11.20;75.40
38514;DHT22;24282;48.400;10.808;2023-02-24T13:24:43;11.20;74.60
38514;DHT22;24282;48.400;10.808;2023-02-24T13:27:34;11.20;74.90
38514;DHT22;24282;48.400;10.808;2023-02-24T13:32:38;11.40;74.30
38514;DHT22;24282;48.400;10.808;2023-02-24T13:37:42;11.30;74.60
38514;DHT22;24282;48.400;10.808;2023-02-24T13:43:03;11.10;74.60
38514;DHT22;24282;48.400;10.808;2023-02-24T13:45:38;11.10;74.80
38514;DHT22;24282;48.400;10.808;2023-02-24T13:48:42;11.00;75.10
38514;DHT22;24282;48.400;10.808;2023-02-24T14:02:28;10.80;76.30
38514;DHT22;24282;48.400;10.808;2023-02-24T14:04:57;10.70;76.50
38514;DHT22;24282;48.400;10.808;2023-02-24T14:07:35;10.60;76.70
38514;DHT22;24282;48.400;10.808;2023-02-24T14:10:18;10.60;77.20
38514;DHT22;24282;48.400;10.808;2023-02-24T14:12:46;10.50;77.20
38514;DHT22;24282;48.400;10.808;2023-02-24T14:15:22;10.50;77.30
38514;DHT22;24282;48.400;10.808;2023-02-24T14:18:00;10.50;77.20
38514;DHT22;24282;48.400;10.808;2023-02-24T14:20:30;10.50;77.40
38514;DHT22;24282;48.400;10.808;2023-02-24T14:22:57;10.50;77.70
38514;DHT22;24282;48.400;10.808;2023-02-24T14:25:26;10.50;77.60
38514;DHT22;24282;48.400;10.808;2023-02-24T14:27:54;10.50;77.60
38514;DHT22;24282;48.400;10.808;2023-02-24T14:32:51;10.50;78.00
38514;DHT22;24282;48.400;10.808;2023-02-24T14:35:19;10.40;78.20
38514;DHT22;24282;48.400;10.808;2023-02-24T14:37:48;10.40;78.40
38514;DHT22;24282;48.400;10.808;2023-02-24T14:40:14;10.40;78.50
38514;DHT22;24282;48.400;10.808;2023-02-24T14:42:48;10.40;78.90
38514;DHT22;24282;48.400;10.808;2023-02-24T14:45:25;10.40;78.70
38514;DHT22;24282;48.400;10.808;2023-02-24T14:47:55;10.40;78.80
38514;DHT22;24282;48.400;10.808;2023-02-24T14:50:29;10.40;78.80
38514;DHT22;24282;48.400;10.808;2023-02-24T14:53:03;10.40;78.90
38514;DHT22;24282;48.400;10.808;2023-02-24T14:55:34;10.40;78.70
38514;DHT22;24282;48.400;10.808;2023-02-24T14:58:56;10.40;78.80
38514;DHT22;24282;48.400;10.808;2023-02-24T15:01:13;10.40;79.00
38514;DHT22;24282;48.400;10.808;2023-02-24T15:03:45;10.50;78.30
38514;DHT22;24282;48.400;10.808;2023-02-24T15:06:21;10.40;78.50
38514;DHT22;24282;48.400;10.808;2023-02-24T15:08:55;10.40;78.70
38514;DHT22;24282;48.400;10.808;2023-02-24T15:11:25;10.40;78.80
38514;DHT22;24282;48.400;10.808;2023-02-24T15:13:56;10.40;79.10
38514;DHT22;24282;48.400;10.808;2023-02-24T15:16:39;10.40;79.50
38514;DHT22;24282;48.400;10.808;2023-02-24T15:19:38;10.40;79.30
38514;DHT22;24282;48.400;10.808;2023-02-24T15:24:45;10.30;79.20
38514;DHT22;24282;48.400;10.808;2023-02-24T15:29:43;10.30;79.80
38514;DHT22;24282;48.400;10.808;2023-02-24T15:32:20;10.30;79.90
38514;DHT22;24282;48.400;10.808;2023-02-24T15:34:47;10.20;80.00
38514;DHT22;24282;48.400;10.808;2023-02-24T15:37:20;10.20;80.20
38514;DHT22;24282;48.400;10.808;2023-02-24T15:39:47;10.20;80.00
38514;DHT22;24282;48.400;10.808;2023-02-24T15:42:24;10.20;80.00
38514;DHT22;24282;48.400;10.808;2023-02-24T15:45:04;10.20;80.10
38514;DHT22;24282;48.400;10.808;2023-02-24T15:47:44;10.20;80.20
38514;DHT22;24282;48.400;10.808;2023-02-24T15:50:11;10.20;80.30
38514;DHT22;24282;48.400;10.808;2023-02-24T15:52:39;10.10;80.40
38514;DHT22;24282;48.400;10.808;2023-02-24T15:55:05;10.10;80.50
38514;DHT22;24282;48.400;10.808;2023-02-24T15:57:32;10.10;80.90
38514;DHT22;24282;48.400;10.808;2023-02-24T15:59:58;10.10;81.00
38514;DHT22;24282;48.400;10.808;2023-02-24T16:02:24;10.00;81.10
38514;DHT22;24282;48.400;10.808;2023-02-24T16:04:51;10.00;81.30
38514;DHT22;24282;48.400;10.808;2023-02-24T16:07:23;9.90;81.50
38514;DHT22;24282;48.400;10.808;2023-02-24T16:09:52;10.00;81.90
38514;DHT22;24282;48.400;10.808;2023-02-24T16:12:34;10.00;81.70
38514;DHT22;24282;48.400;10.808;2023-02-24T16:15:02;9.90;81.80
38514;DHT22;24282;48.400;10.808;2023-02-24T16:17:35;9.90;81.90
38514;DHT22;24282;48.400;10.808;2023-02-24T16:20:11;9.90;82.00
38514;DHT22;24282;48.400;10.808;2023-02-24T16:22:38;9.90;82.10
38514;DHT22;24282;48.400;10.808;2023-02-24T16:25:04;9.80;82.30
38514;DHT22;24282;48.400;10.808;2023-02-24T16:27:30;9.80;82.60
38514;DHT22;24282;48.400;10.808;2023-02-24T16:29:57;9.80;82.80
38514;DHT22;24282;48.400;10.808;2023-02-24T16:32:23;9.70;82.90
38514;DHT22;24282;48.400;10.808;2023-02-24T16:34:52;9.70;83.10
38514;DHT22;24282;48.400;10.808;2023-02-24T16:37:23;9.70;83.30
38514;DHT22;24282;48.400;10.808;2023-02-24T16:39:51;9.60;83.20
38514;DHT22;24282;48.400;10.808;2023-02-24T16:42:18;9.60;83.30
38514;DHT22;24282;48.400;10.808;2023-02-24T16:44:44;9.60;83.50
38514;DHT22;24282;48.400;10.808;2023-02-24T16:47:21;9.60;83.60
38514;DHT22;24282;48.400;10.808;2023-02-24T16:49:47;9.50;83.70
38514;DHT22;24282;48.400;10.808;2023-02-24T16:52:14;9.50;83.90
38514;DHT22;24282;48.400;10.808;2023-02-24T16:54:44;9.50;83.90
38514;DHT22;24282;48.400;10.808;2023-02-24T16:57:10;9.50;84.00
38514;DHT22;24282;48.400;10.808;2023-02-24T16:59:36;9.50;84.00
38514;DHT22;24282;48.400;10.808;2023-02-24T17:02:02;9.50;84.00
38514;DHT22;24282;48.400;10.808;2023-02-24T17:04:28;9.50;84.00
38514;DHT22;24282;48.400;10.808;2023-02-24T17:06:58;9.40;84.10
38514;DHT22;24282;48.400;10.808;2023-02-24T17:09:24;9.40;84.10
38514;DHT22;24282;48.400;10.808;2023-02-24T17:11:54;9.40;84.20
38514;DHT22;24282;48.400;10.808;2023-02-24T17:14:20;9.40;84.10
38514;DHT22;24282;48.400;10.808;2023-02-24T17:16:46;9.40;84.20
38514;DHT22;24282;48.400;10.808;2023-02-24T17:19:12;9.40;84.40
38514;DHT22;24282;48.400;10.808;2023-02-24T17:21:41;9.30;84.40
38514;DHT22;24282;48.400;10.808;2023-02-24T17:24:14;9.30;84.50
38514;DHT22;24282;48.400;10.808;2023-02-24T17:26:40;9.30;84.60
38514;DHT22;24282;48.400;10.808;2023-02-24T17:29:06;9.30;84.60
38514;DHT22;24282;48.400;10.808;2023-02-24T17:31:32;9.30;84.70
38514;DHT22;24282;48.400;10.808;2023-02-24T17:33:59;9.30;84.70
38514;DHT22;24282;48.400;10.808;2023-02-24T17:36:26;9.30;84.80
38514;DHT22;24282;48.400;10.808;2023-02-24T17:38:52;9.30;84.90
38514;DHT22;24282;48.400;10.808;2023-02-24T17:41:19;9.30;85.00
38514;DHT22;24282;48.400;10.808;2023-02-24T17:43:45;9.20;85.00
38514;DHT22;24282;48.400;10.808;2023-02-24T17:46:11;9.20;85.00
38514;DHT22;24282;48.400;10.808;2023-02-24T17:48:37;9.30;85.10
38514;DHT22;24282;48.400;10.808;2023-02-24T17:51:03;9.20;85.10
38514;DHT22;24282;48.400;10.808;2023-02-24T17:53:29;9.20;85.10
38514;DHT22;24282;48.400;10.808;2023-02-24T17:56:05;9.20;85.00
38514;DHT22;24282;48.400;10.808;2023-02-24T17:58:32;9.20;85.00
38514;DHT22;24282;48.400;10.808;2023-02-24T18:00:58;9.20;84.70
38514;DHT22;24282;48.400;10.808;2023-02-24T18:03:28;9.20;84.60
38514;DHT22;24282;48.400;10.808;2023-02-24T18:06:02;9.20;84.60
38514;DHT22;24282;48.400;10.808;2023-02-24T18:08:28;9.20;84.60
38514;DHT22;24282;48.400;10.808;2023-02-24T18:10:55;9.20;84.50